createdAt,value
2019-03-08T00:02:00.226Z,98885.83
2019-03-08T00:07:01.968Z,98875.66
2019-03-08T00:12:03.783Z,98873.36
2019-03-08T00:17:05.609Z,98875.98
2019-03-08T00:22:07.398Z,98876.66
2019-03-08T00:27:09.240Z,98870.90
2019-03-08T00:32:10.928Z,98867.16
2019-03-08T00:37:12.684Z,98878.64
2019-03-08T00:42:14.471Z,98892.28
2019-03-08T00:47:16.270Z,98884.45
2019-03-08T00:52:17.838Z,98887.72
2019-03-08T00:57:19.530Z,98879.34
2019-03-08T01:02:21.264Z,98880.07
2019-03-08T01:07:22.938Z,98868.66
2019-03-08T01:12:24.567Z,98867.34
2019-03-08T01:17:26.273Z,98872.14
2019-03-08T01:22:27.875Z,98861.23
2019-03-08T01:27:29.560Z,98865.20
2019-03-08T01:32:31.237Z,98870.17
2019-03-08T01:37:32.792Z,98862.31
2019-03-08T01:42:34.369Z,98871.11
2019-03-08T01:47:36.218Z,98860.15
2019-03-08T01:52:37.909Z,98866.53
2019-03-08T01:57:39.621Z,98859.72
2019-03-08T02:02:41.360Z,98856.33
2019-03-08T02:07:43.099Z,98845.69
2019-03-08T02:12:44.658Z,98849.14
2019-03-08T02:17:46.352Z,98848.50
2019-03-08T02:22:47.937Z,98858.02
2019-03-08T02:27:49.630Z,98862.73
2019-03-08T02:32:51.371Z,98848.06
2019-03-08T02:37:52.964Z,98846.97
2019-03-08T02:42:54.633Z,98840.91
2019-03-08T02:47:56.383Z,98837.64
2019-03-08T02:52:57.952Z,98833.91
2019-03-08T02:57:59.627Z,98818.67
2019-03-08T03:03:01.303Z,98829.84
2019-03-08T03:08:03.095Z,98815.28
2019-03-08T03:13:04.869Z,98816.27
2019-03-08T03:18:06.554Z,98819.23
2019-03-08T03:23:08.277Z,98820.86
2019-03-08T03:28:09.944Z,98836.75
2019-03-08T03:33:11.683Z,98825.97
2019-03-08T03:38:13.261Z,98831.84
2019-03-08T03:43:14.943Z,98839.56
2019-03-08T03:48:16.571Z,98829.89
2019-03-08T03:53:18.206Z,98837.74
2019-03-08T03:58:19.930Z,98842.34
2019-03-08T04:03:21.702Z,98845.47
2019-03-08T04:08:23.394Z,98846.77
2019-03-08T04:13:24.987Z,98866.23
2019-03-08T04:18:26.631Z,98863.30
2019-03-08T04:23:28.343Z,98859.38
2019-03-08T04:28:29.991Z,98863.99
2019-03-08T04:33:31.613Z,98865.44
2019-03-08T04:38:33.198Z,98867.92
2019-03-08T04:43:34.824Z,98871.16
2019-03-08T04:48:36.376Z,98863.47
2019-03-08T04:53:38.104Z,98874.73
2019-03-08T04:58:39.730Z,98871.80
2019-03-08T05:03:41.272Z,98875.41
2019-03-08T05:08:42.829Z,98875.41
2019-03-08T05:13:44.496Z,98871.16
2019-03-08T05:18:46.058Z,98874.92
2019-03-08T05:23:47.620Z,98885.73
2019-03-08T05:28:49.345Z,98887.05
2019-03-08T05:33:50.925Z,98908.31
2019-03-08T05:38:52.515Z,98890.78
2019-03-08T05:43:54.104Z,98887.83
2019-03-08T05:48:55.697Z,98900.77
2019-03-08T05:53:57.276Z,98911.87
2019-03-08T05:58:58.840Z,98914.78
2019-03-08T06:04:00.444Z,98923.80
2019-03-08T06:09:03.868Z,98933.27
2019-03-08T06:14:05.582Z,98937.33
2019-03-08T06:19:07.178Z,98941.89
2019-03-08T06:24:08.753Z,98942.33
2019-03-08T06:29:10.305Z,98927.52
2019-03-08T06:34:11.980Z,98941.06
2019-03-08T06:39:13.536Z,98949.56
2019-03-08T06:44:15.110Z,98947.72
2019-03-08T06:49:16.785Z,98951.63
2019-03-08T06:54:18.448Z,98974.36
2019-03-08T06:59:27.746Z,98968.08
2019-03-08T07:04:29.455Z,98997.34
2019-03-08T07:09:31.063Z,98996.47
2019-03-08T07:14:32.633Z,99010.48
2019-03-08T07:19:40.672Z,99011.52
2019-03-08T07:24:50.442Z,99017.70
2019-03-08T07:30:10.334Z,99067.80
2019-03-08T07:35:23.273Z,99065.66
2019-03-08T07:40:32.734Z,99073.88
2019-03-08T07:45:56.807Z,99091.06
2019-03-08T07:51:30.215Z,99095.94
2019-03-08T07:56:51.437Z,99117.62
2019-03-08T08:02:01.494Z,99123.00
2019-03-08T08:07:22.709Z,99145.09
2019-03-08T08:12:40.572Z,99156.10
2019-03-08T08:17:51.109Z,99189.30
2019-03-08T08:22:58.359Z,99203.67
2019-03-08T08:28:18.546Z,99225.41
2019-03-08T08:33:39.781Z,99229.13
2019-03-08T08:39:13.159Z,99222.73
2019-03-08T08:44:32.930Z,99271.38
2019-03-08T08:49:54.323Z,99251.41
2019-03-08T08:54:57.146Z,99265.88
2019-03-08T09:00:13.161Z,99280.88
2019-03-08T09:05:19.914Z,99284.61
2019-03-08T09:10:38.068Z,99296.95
2019-03-08T09:16:02.070Z,99312.84
2019-03-08T09:21:21.851Z,99340.90
2019-03-08T09:26:35.619Z,99351.62
2019-03-08T09:31:45.077Z,99340.34
2019-03-08T09:36:58.846Z,99391.47
2019-03-08T09:42:23.291Z,99406.20
2019-03-08T09:47:34.340Z,99417.52
2019-03-08T09:53:07.690Z,99431.77
2019-03-08T09:58:29.035Z,99444.70
2019-03-08T10:03:46.590Z,99445.05
2019-03-08T10:09:10.877Z,99464.17
2019-03-08T10:14:41.428Z,99490.56
2019-03-08T10:19:52.418Z,99488.92
2019-03-08T10:25:32.053Z,99481.08
2019-03-08T10:30:40.770Z,99488.13
2019-03-08T10:36:07.898Z,99493.22
2019-03-08T10:41:32.329Z,99492.86
2019-03-08T10:47:08.469Z,99504.78
2019-03-08T10:52:28.327Z,99497.82
2019-03-08T10:57:36.919Z,99513.66
2019-03-08T11:02:58.570Z,99502.52
2019-03-08T11:08:10.105Z,99542.93
2019-03-08T11:13:43.206Z,99537.41
2019-03-08T11:18:52.791Z,99538.55
2019-03-08T11:24:07.651Z,99548.66
2019-03-08T11:29:28.062Z,99546.88
2019-03-08T11:34:52.161Z,99573.01
2019-03-08T11:40:01.436Z,99581.53
2019-03-08T11:45:28.985Z,99589.50
2019-03-08T11:50:48.822Z,99557.74
2019-03-08T11:56:04.076Z,99580.98
2019-03-08T12:01:16.109Z,99576.97
2019-03-08T12:06:46.650Z,99594.93
2019-03-08T12:11:55.705Z,99572.95
2019-03-08T12:17:16.965Z,99576.38
2019-03-08T12:22:50.059Z,99580.16
2019-03-08T12:28:11.299Z,99593.58
2019-03-08T12:33:24.643Z,99613.09
2019-03-08T12:38:40.854Z,99676.51
2019-03-08T12:43:54.205Z,99638.71
2019-03-08T12:49:14.078Z,99648.55
2019-03-08T12:54:41.194Z,99642.06
2019-03-08T13:00:19.908Z,99639.02
2019-03-08T13:05:32.532Z,99645.36
2019-03-08T13:10:34.123Z,99667.61
2019-03-08T13:15:35.782Z,99662.84
2019-03-08T13:20:37.447Z,99655.75
2019-03-08T13:25:39.050Z,99646.27
2019-03-08T13:30:40.618Z,99704.89
2019-03-08T13:35:42.215Z,99754.63
2019-03-08T13:40:43.737Z,99745.41
2019-03-08T13:45:45.405Z,99719.28
2019-03-08T13:50:47.056Z,99711.06
2019-03-08T13:55:48.642Z,99718.40
2019-03-08T14:00:50.371Z,99721.61
2019-03-08T14:05:51.939Z,99723.91
2019-03-08T14:10:53.634Z,99739.16
2019-03-08T14:15:55.447Z,99740.52
2019-03-08T14:20:57.041Z,99759.40
2019-03-08T14:25:58.739Z,99757.67
2019-03-08T14:31:35.442Z,99761.38
2019-03-08T14:36:39.295Z,99776.20
2019-03-08T14:41:55.990Z,99829.70
2019-03-08T14:47:08.315Z,99801.66
2019-03-08T14:52:09.877Z,99806.80
2019-03-08T14:57:13.133Z,99801.70
2019-03-08T15:02:15.037Z,99801.30
2019-03-08T15:07:16.592Z,99800.02
2019-03-08T15:12:18.162Z,99824.91
2019-03-08T15:17:20.037Z,99824.11
2019-03-08T15:22:21.615Z,99835.20
2019-03-08T15:27:23.181Z,99826.93
2019-03-08T15:32:24.861Z,99844.01
2019-03-08T15:37:26.445Z,99844.39
2019-03-08T15:42:28.117Z,99853.72
2019-03-08T15:47:32.572Z,99860.73
2019-03-08T15:52:33.442Z,99857.11
2019-03-08T15:57:35.140Z,99848.39
2019-03-08T16:02:37.514Z,99855.70
2019-03-08T16:07:39.228Z,99847.81
2019-03-08T16:12:41.029Z,99857.81
2019-03-08T16:17:42.718Z,99865.44
2019-03-08T16:22:44.300Z,99873.33
2019-03-08T16:27:46.220Z,99879.28
2019-03-08T16:33:10.299Z,99892.61
2019-03-08T16:38:23.599Z,99900.22
2019-03-08T16:43:50.714Z,99893.30
2019-03-08T16:48:59.940Z,99909.48
2019-03-08T16:54:10.530Z,99918.23
2019-03-08T16:59:23.667Z,99914.72
2019-03-08T17:04:39.178Z,99920.14
2019-03-08T17:09:59.468Z,99930.43
2019-03-08T17:15:19.542Z,99944.03
2019-03-08T17:20:46.728Z,99951.04
2019-03-08T17:25:57.269Z,99963.63
2019-03-08T17:31:20.922Z,99983.30
2019-03-08T17:36:45.361Z,99977.92
2019-03-08T17:41:58.486Z,99988.81
2019-03-08T17:47:22.766Z,100005.73
2019-03-08T17:52:42.409Z,100004.52
2019-03-08T17:58:02.090Z,100019.68
2019-03-08T18:03:11.517Z,100026.73
2019-03-08T18:08:44.570Z,100021.16
2019-03-08T18:13:55.084Z,100015.84
2019-03-08T18:19:15.381Z,100036.58
2019-03-08T18:24:39.141Z,100031.97
2019-03-08T18:29:48.179Z,100039.54
2019-03-08T18:35:00.622Z,100048.35
2019-03-08T18:40:24.780Z,100044.83
2019-03-08T18:45:42.850Z,100049.44
2019-03-08T18:51:01.817Z,100060.24
2019-03-08T18:56:35.606Z,100061.20
2019-03-08T19:02:11.923Z,100063.13
2019-03-08T19:07:42.347Z,100070.94
2019-03-08T19:13:08.413Z,100071.41
2019-03-08T19:18:35.479Z,100070.95
2019-03-08T19:23:57.741Z,100078.38
2019-03-08T19:29:06.713Z,100077.64
2019-03-08T19:34:47.668Z,100081.95
2019-03-08T19:40:01.944Z,100080.80
2019-03-08T19:45:19.175Z,100078.25
2019-03-08T19:50:39.701Z,100080.98
2019-03-08T19:56:00.967Z,100074.37
2019-03-08T20:01:25.281Z,100079.06
2019-03-08T20:06:37.960Z,100072.72
2019-03-08T20:11:53.072Z,100085.87
2019-03-08T20:17:14.388Z,100088.75
2019-03-08T20:22:31.514Z,100082.91
2019-03-08T20:27:51.354Z,100093.80
2019-03-08T20:33:06.093Z,100094.63
2019-03-08T20:38:26.061Z,100092.75
2019-03-08T20:43:32.729Z,100095.86
2019-03-08T20:48:34.408Z,100090.21
2019-03-08T20:53:36.081Z,100088.08
2019-03-08T20:58:38.521Z,100094.47
2019-03-08T21:03:40.131Z,100096.00
2019-03-08T21:08:41.796Z,100091.73
2019-03-08T21:13:43.361Z,100088.97
2019-03-08T21:18:45.099Z,100087.81
2019-03-08T21:23:46.666Z,100097.77
2019-03-08T21:28:48.246Z,100096.00
2019-03-08T21:33:49.803Z,100090.28
2019-03-08T21:38:51.494Z,100073.44
2019-03-08T21:43:53.067Z,100072.52
2019-03-08T21:48:54.621Z,100063.52
2019-03-08T21:53:56.481Z,100063.45
2019-03-08T21:58:58.186Z,100056.02
2019-03-08T22:04:04.866Z,100056.56
2019-03-08T22:09:20.698Z,100045.03
2019-03-08T22:14:22.587Z,100047.50
2019-03-08T22:19:24.241Z,100042.42
2019-03-08T22:24:25.888Z,100038.70
2019-03-08T22:29:27.460Z,100027.48
2019-03-08T22:34:29.115Z,100020.53
2019-03-08T22:39:30.673Z,100012.41
2019-03-08T22:44:32.241Z,100016.69
2019-03-08T22:49:33.998Z,100007.76
2019-03-08T22:54:35.672Z,100004.38
2019-03-08T22:59:37.243Z,99995.92
2019-03-08T23:05:11.506Z,99995.08
2019-03-08T23:10:10.821Z,99976.70
2019-03-08T23:15:12.510Z,99978.31
2019-03-08T23:20:14.248Z,99972.43
2019-03-08T23:25:15.850Z,99969.78
2019-03-08T23:30:21.330Z,99969.44
2019-03-08T23:35:22.987Z,99970.25
2019-03-08T23:40:24.544Z,99966.67
2019-03-08T23:45:26.084Z,99956.09
2019-03-08T23:50:27.639Z,99950.86
2019-03-08T23:55:29.205Z,99936.48
